sensor_id;sensor_type;location;lat;lon;timestamp;temperature;humidity
6696;DHT22;3385;48.928;10.330;2022-10-16T00:01:30;13.60;99.90
6696;DHT22;3385;48.928;10.330;2022-10-16T00:03:57;13.60;99.90
6696;DHT22;3385;48.928;10.330;2022-10-16T00:06:23;13.70;99.90
6696;DHT22;3385;48.928;10.330;2022-10-16T00:08:50;13.70;99.90
6696;DHT22;3385;48.928;10.330;2022-10-16T00:11:36;13.60;99.90
6696;DHT22;3385;48.928;10.330;2022-10-16T00:14:05;13.60;99.90
6696;DHT22;3385;48.928;10.330;2022-10-16T00:16:31;13.60;99.90
6696;DHT22;3385;48.928;10.330;2022-10-16T00:18:58;13.60;99.90
6696;DHT22;3385;48.928;10.330;2022-10-16T00:21:26;13.50;99.90
6696;DHT22;3385;48.928;10.330;2022-10-16T00:23:55;13.50;99.90
6696;DHT22;3385;48.928;10.330;2022-10-16T00:26:21;13.50;99.90
6696;DHT22;3385;48.928;10.330;2022-10-16T00:28:48;13.40;99.90
6696;DHT22;3385;48.928;10.330;2022-10-16T00:31:16;13.40;99.90
6696;DHT22;3385;48.928;10.330;2022-10-16T00:33:42;13.40;99.90
6696;DHT22;3385;48.928;10.330;2022-10-16T00:36:11;13.40;99.90
6696;DHT22;3385;48.928;10.330;2022-10-16T00:38:38;13.30;99.90
6696;DHT22;3385;48.928;10.330;2022-10-16T00:41:04;13.30;99.90
6696;DHT22;3385;48.928;10.330;2022-10-16T00:43:51;13.30;99.90
6696;DHT22;3385;48.928;10.330;2022-10-16T00:46:46;13.30;99.90
6696;DHT22;3385;48.928;10.330;2022-10-16T00:49:15;13.30;99.90
6696;DHT22;3385;48.928;10.330;2022-10-16T00:51:53;13.30;99.90
6696;DHT22;3385;48.928;10.330;2022-10-16T00:54:23;13.30;99.90
6696;DHT22;3385;48.928;10.330;2022-10-16T00:56:50;13.40;99.90
6696;DHT22;3385;48.928;10.330;2022-10-16T00:59:28;13.40;99.90
6696;DHT22;3385;48.928;10.330;2022-10-16T01:01:55;13.40;99.90
6696;DHT22;3385;48.928;10.330;2022-10-16T01:04:23;13.40;99.90
6696;DHT22;3385;48.928;10.330;2022-10-16T01:12:49;13.40;99.90
6696;DHT22;3385;48.928;10.330;2022-10-16T01:18:03;13.40;99.90
6696;DHT22;3385;48.928;10.330;2022-10-16T01:28:45;13.40;99.90
6696;DHT22;3385;48.928;10.330;2022-10-16T01:31:14;13.40;99.90
6696;DHT22;3385;48.928;10.330;2022-10-16T01:33:47;13.40;99.90
6696;DHT22;3385;48.928;10.330;2022-10-16T01:36:21;13.50;99.90
6696;DHT22;3385;48.928;10.330;2022-10-16T01:38:51;13.50;99.90
6696;DHT22;3385;48.928;10.330;2022-10-16T01:41:24;13.50;99.90
6696;DHT22;3385;48.928;10.330;2022-10-16T01:44:07;13.50;99.90
6696;DHT22;3385;48.928;10.330;2022-10-16T01:46:36;13.50;99.90
6696;DHT22;3385;48.928;10.330;2022-10-16T01:49:03;13.50;99.90
6696;DHT22;3385;48.928;10.330;2022-10-16T01:51:31;13.50;99.90
6696;DHT22;3385;48.928;10.330;2022-10-16T01:53:59;13.50;99.90
6696;DHT22;3385;48.928;10.330;2022-10-16T01:56:26;13.50;99.90
6696;DHT22;3385;48.928;10.330;2022-10-16T01:59:06;13.40;99.90
6696;DHT22;3385;48.928;10.330;2022-10-16T02:01:35;13.40;99.90
6696;DHT22;3385;48.928;10.330;2022-10-16T02:04:15;13.40;99.90
6696;DHT22;3385;48.928;10.330;2022-10-16T02:06:42;13.40;99.90
6696;DHT22;3385;48.928;10.330;2022-10-16T02:09:08;13.30;99.90
6696;DHT22;3385;48.928;10.330;2022-10-16T02:11:34;13.30;99.90
6696;DHT22;3385;48.928;10.330;2022-10-16T02:14:09;13.30;99.90
6696;DHT22;3385;48.928;10.330;2022-10-16T02:16:41;13.30;99.90
6696;DHT22;3385;48.928;10.330;2022-10-16T02:19:07;13.30;99.90
6696;DHT22;3385;48.928;10.330;2022-10-16T02:21:56;13.30;99.90
6696;DHT22;3385;48.928;10.330;2022-10-16T02:27:27;13.30;99.90
6696;DHT22;3385;48.928;10.330;2022-10-16T02:30:08;13.30;99.90
6696;DHT22;3385;48.928;10.330;2022-10-16T02:32:36;13.20;99.90
6696;DHT22;3385;48.928;10.330;2022-10-16T02:35:03;13.20;99.90
6696;DHT22;3385;48.928;10.330;2022-10-16T02:37:29;13.20;99.90
6696;DHT22;3385;48.928;10.330;2022-10-16T02:39:57;13.20;99.90
6696;DHT22;3385;48.928;10.330;2022-10-16T02:42:29;13.20;99.90
6696;DHT22;3385;48.928;10.330;2022-10-16T02:44:55;13.20;99.90
6696;DHT22;3385;48.928;10.330;2022-10-16T02:47:20;13.20;99.90
6696;DHT22;3385;48.928;10.330;2022-10-16T02:49:46;13.20;99.90
6696;DHT22;3385;48.928;10.330;2022-10-16T02:52:12;13.10;99.90
6696;DHT22;3385;48.928;10.330;2022-10-16T02:54:37;13.10;99.90
6696;DHT22;3385;48.928;10.330;2022-10-16T02:57:03;13.10;99.90
6696;DHT22;3385;48.928;10.330;2022-10-16T02:59:29;13.00;99.90
6696;DHT22;3385;48.928;10.330;2022-10-16T03:01:54;13.00;99.90
6696;DHT22;3385;48.928;10.330;2022-10-16T03:04:20;13.00;99.90
6696;DHT22;3385;48.928;10.330;2022-10-16T03:06:46;13.00;99.90
6696;DHT22;3385;48.928;10.330;2022-10-16T03:09:11;13.00;99.90
6696;DHT22;3385;48.928;10.330;2022-10-16T03:11:37;12.90;99.90
6696;DHT22;3385;48.928;10.330;2022-10-16T03:14:03;12.90;99.90
6696;DHT22;3385;48.928;10.330;2022-10-16T03:16:28;12.90;99.90
6696;DHT22;3385;48.928;10.330;2022-10-16T03:18:54;12.90;99.90
6696;DHT22;3385;48.928;10.330;2022-10-16T03:21:20;12.90;99.90
6696;DHT22;3385;48.928;10.330;2022-10-16T03:23:45;13.00;99.90
6696;DHT22;3385;48.928;10.330;2022-10-16T03:26:12;12.90;99.90
6696;DHT22;3385;48.928;10.330;2022-10-16T03:28:37;13.00;99.90
6696;DHT22;3385;48.928;10.330;2022-10-16T03:31:03;13.00;99.90
6696;DHT22;3385;48.928;10.330;2022-10-16T03:33:29;13.00;99.90
6696;DHT22;3385;48.928;10.330;2022-10-16T03:35:54;13.00;99.90
6696;DHT22;3385;48.928;10.330;2022-10-16T03:38:21;13.00;99.90
6696;DHT22;3385;48.928;10.330;2022-10-16T03:40:47;13.00;99.90
6696;DHT22;3385;48.928;10.330;2022-10-16T03:43:12;13.00;99.90
6696;DHT22;3385;48.928;10.330;2022-10-16T03:45:38;13.00;99.90
6696;DHT22;3385;48.928;10.330;2022-10-16T03:48:04;13.00;99.90
6696;DHT22;3385;48.928;10.330;2022-10-16T03:50:30;13.00;99.90
6696;DHT22;3385;48.928;10.330;2022-10-16T03:52:55;13.00;99.90
6696;DHT22;3385;48.928;10.330;2022-10-16T03:55:21;13.00;99.90
6696;DHT22;3385;48.928;10.330;2022-10-16T03:57:47;13.00;99.90
6696;DHT22;3385;48.928;10.330;2022-10-16T04:00:13;13.00;99.90
6696;DHT22;3385;48.928;10.330;2022-10-16T04:02:39;13.10;99.90
6696;DHT22;3385;48.928;10.330;2022-10-16T04:05:05;13.10;99.90
6696;DHT22;3385;48.928;10.330;2022-10-16T04:07:31;13.10;99.90
6696;DHT22;3385;48.928;10.330;2022-10-16T04:09:57;13.00;99.90
6696;DHT22;3385;48.928;10.330;2022-10-16T04:12:24;13.00;99.90
6696;DHT22;3385;48.928;10.330;2022-10-16T04:14:50;13.00;99.90
6696;DHT22;3385;48.928;10.330;2022-10-16T04:17:16;12.90;99.90
6696;DHT22;3385;48.928;10.330;2022-10-16T04:19:42;12.90;99.90
6696;DHT22;3385;48.928;10.330;2022-10-16T04:22:07;12.90;99.90
6696;DHT22;3385;48.928;10.330;2022-10-16T04:24:33;12.90;99.90
6696;DHT22;3385;48.928;10.330;2022-10-16T04:26:59;12.90;99.90
6696;DHT22;3385;48.928;10.330;2022-10-16T04:29:24;12.90;99.90
6696;DHT22;3385;48.928;10.330;2022-10-16T04:31:50;12.80;99.90
6696;DHT22;3385;48.928;10.330;2022-10-16T04:34:16;12.90;99.90
6696;DHT22;3385;48.928;10.330;2022-10-16T04:36:41;12.90;99.90
6696;DHT22;3385;48.928;10.330;2022-10-16T04:39:07;12.80;99.90
6696;DHT22;3385;48.928;10.330;2022-10-16T04:41:33;12.80;99.90
6696;DHT22;3385;48.928;10.330;2022-10-16T04:43:58;12.80;99.90
6696;DHT22;3385;48.928;10.330;2022-10-16T04:46:24;12.70;99.90
6696;DHT22;3385;48.928;10.330;2022-10-16T04:48:50;12.70;99.90
6696;DHT22;3385;48.928;10.330;2022-10-16T04:51:16;12.60;99.90
6696;DHT22;3385;48.928;10.330;2022-10-16T04:53:41;12.50;99.90
6696;DHT22;3385;48.928;10.330;2022-10-16T04:56:07;12.50;99.90
6696;DHT22;3385;48.928;10.330;2022-10-16T04:58:33;12.40;99.90
6696;DHT22;3385;48.928;10.330;2022-10-16T05:00:59;12.40;99.90
6696;DHT22;3385;48.928;10.330;2022-10-16T05:03:24;12.30;99.90
6696;DHT22;3385;48.928;10.330;2022-10-16T05:05:50;12.30;99.90
6696;DHT22;3385;48.928;10.330;2022-10-16T05:08:16;12.20;99.90
6696;DHT22;3385;48.928;10.330;2022-10-16T05:10:43;12.20;99.90
6696;DHT22;3385;48.928;10.330;2022-10-16T05:13:09;12.20;99.90
6696;DHT22;3385;48.928;10.330;2022-10-16T05:15:35;12.20;99.90
6696;DHT22;3385;48.928;10.330;2022-10-16T05:18:00;12.30;99.90
6696;DHT22;3385;48.928;10.330;2022-10-16T05:20:26;12.40;99.90
6696;DHT22;3385;48.928;10.330;2022-10-16T05:22:52;12.40;99.90
6696;DHT22;3385;48.928;10.330;2022-10-16T05:25:17;12.40;99.90
6696;DHT22;3385;48.928;10.330;2022-10-16T05:27:47;12.50;99.90
6696;DHT22;3385;48.928;10.330;2022-10-16T05:30:14;12.40;99.90
6696;DHT22;3385;48.928;10.330;2022-10-16T05:32:39;12.50;99.90
6696;DHT22;3385;48.928;10.330;2022-10-16T05:35:05;12.50;99.90
6696;DHT22;3385;48.928;10.330;2022-10-16T05:37:31;12.50;99.90
6696;DHT22;3385;48.928;10.330;2022-10-16T05:39:57;12.50;99.90
6696;DHT22;3385;48.928;10.330;2022-10-16T05:42:23;12.50;99.90
6696;DHT22;3385;48.928;10.330;2022-10-16T05:44:48;12.50;99.90
6696;DHT22;3385;48.928;10.330;2022-10-16T05:47:14;12.60;99.90
6696;DHT22;3385;48.928;10.330;2022-10-16T05:49:40;12.60;99.90
6696;DHT22;3385;48.928;10.330;2022-10-16T05:52:06;12.70;99.90
6696;DHT22;3385;48.928;10.330;2022-10-16T05:54:31;12.70;99.90
6696;DHT22;3385;48.928;10.330;2022-10-16T05:56:57;12.70;99.90
6696;DHT22;3385;48.928;10.330;2022-10-16T05:59:23;12.70;99.90
6696;DHT22;3385;48.928;10.330;2022-10-16T06:01:48;12.70;99.90
6696;DHT22;3385;48.928;10.330;2022-10-16T06:04:14;12.80;99.90
6696;DHT22;3385;48.928;10.330;2022-10-16T06:06:40;12.80;99.90
6696;DHT22;3385;48.928;10.330;2022-10-16T06:09:06;12.80;99.90
6696;DHT22;3385;48.928;10.330;2022-10-16T06:11:33;12.90;99.90
6696;DHT22;3385;48.928;10.330;2022-10-16T06:14:01;12.90;99.90
6696;DHT22;3385;48.928;10.330;2022-10-16T06:16:28;12.90;99.90
6696;DHT22;3385;48.928;10.330;2022-10-16T06:18:55;13.00;99.90
6696;DHT22;3385;48.928;10.330;2022-10-16T06:21:26;13.00;99.90
6696;DHT22;3385;48.928;10.330;2022-10-16T06:23:53;13.10;99.90
6696;DHT22;3385;48.928;10.330;2022-10-16T06:26:22;13.20;99.90
6696;DHT22;3385;48.928;10.330;2022-10-16T06:28:49;13.30;99.90
6696;DHT22;3385;48.928;10.330;2022-10-16T06:31:16;13.40;99.90
6696;DHT22;3385;48.928;10.330;2022-10-16T06:33:42;13.50;99.90
6696;DHT22;3385;48.928;10.330;2022-10-16T06:36:13;13.50;99.90
6696;DHT22;3385;48.928;10.330;2022-10-16T06:38:40;13.50;99.90
6696;DHT22;3385;48.928;10.330;2022-10-16T06:41:06;13.60;99.90
6696;DHT22;3385;48.928;10.330;2022-10-16T06:43:32;13.50;99.90
6696;DHT22;3385;48.928;10.330;2022-10-16T06:46:01;13.60;99.90
6696;DHT22;3385;48.928;10.330;2022-10-16T06:48:28;13.60;99.90
6696;DHT22;3385;48.928;10.330;2022-10-16T06:53:27;13.70;99.90
6696;DHT22;3385;48.928;10.330;2022-10-16T06:55:54;13.80;99.90
6696;DHT22;3385;48.928;10.330;2022-10-16T06:58:20;13.90;99.90
6696;DHT22;3385;48.928;10.330;2022-10-16T07:00:46;14.00;99.90
6696;DHT22;3385;48.928;10.330;2022-10-16T07:03:12;14.10;99.90
6696;DHT22;3385;48.928;10.330;2022-10-16T07:05:38;14.10;99.90
6696;DHT22;3385;48.928;10.330;2022-10-16T07:08:05;14.20;99.90
6696;DHT22;3385;48.928;10.330;2022-10-16T07:10:31;14.30;99.90
6696;DHT22;3385;48.928;10.330;2022-10-16T07:12:57;14.40;99.90
6696;DHT22;3385;48.928;10.330;2022-10-16T07:15:23;14.50;99.90
6696;DHT22;3385;48.928;10.330;2022-10-16T07:17:50;14.50;99.90
6696;DHT22;3385;48.928;10.330;2022-10-16T07:20:16;14.60;99.90
6696;DHT22;3385;48.928;10.330;2022-10-16T07:22:41;14.70;99.90
6696;DHT22;3385;48.928;10.330;2022-10-16T07:25:07;14.80;99.90
6696;DHT22;3385;48.928;10.330;2022-10-16T07:27:33;14.90;99.90
6696;DHT22;3385;48.928;10.330;2022-10-16T07:29:59;15.00;99.90
6696;DHT22;3385;48.928;10.330;2022-10-16T07:32:25;15.10;99.90
6696;DHT22;3385;48.928;10.330;2022-10-16T07:34:52;15.20;99.90
6696;DHT22;3385;48.928;10.330;2022-10-16T07:37:17;15.30;99.90
6696;DHT22;3385;48.928;10.330;2022-10-16T07:39:43;15.40;99.90
6696;DHT22;3385;48.928;10.330;2022-10-16T07:42:09;15.40;99.90
6696;DHT22;3385;48.928;10.330;2022-10-16T07:44:36;15.50;99.90
6696;DHT22;3385;48.928;10.330;2022-10-16T07:47:01;15.50;99.90
6696;DHT22;3385;48.928;10.330;2022-10-16T07:49:28;15.60;99.90
6696;DHT22;3385;48.928;10.330;2022-10-16T07:51:53;15.70;99.90
6696;DHT22;3385;48.928;10.330;2022-10-16T07:54:19;15.80;99.90
6696;DHT22;3385;48.928;10.330;2022-10-16T07:56:45;16.00;99.90
6696;DHT22;3385;48.928;10.330;2022-10-16T07:59:11;16.00;99.90
6696;DHT22;3385;48.928;10.330;2022-10-16T08:01:36;16.10;99.90
6696;DHT22;3385;48.928;10.330;2022-10-16T08:04:02;16.10;99.90
6696;DHT22;3385;48.928;10.330;2022-10-16T08:06:28;16.10;99.90
6696;DHT22;3385;48.928;10.330;2022-10-16T08:08:55;16.20;99.90
6696;DHT22;3385;48.928;10.330;2022-10-16T08:11:21;16.20;99.90
6696;DHT22;3385;48.928;10.330;2022-10-16T08:13:47;16.40;99.90
6696;DHT22;3385;48.928;10.330;2022-10-16T08:16:12;16.50;99.90
6696;DHT22;3385;48.928;10.330;2022-10-16T08:18:39;16.70;99.90
6696;DHT22;3385;48.928;10.330;2022-10-16T08:21:07;16.80;99.90
6696;DHT22;3385;48.928;10.330;2022-10-16T08:23:33;17.00;99.90
6696;DHT22;3385;48.928;10.330;2022-10-16T08:26:04;17.10;99.90
6696;DHT22;3385;48.928;10.330;2022-10-16T08:28:31;17.30;99.90
6696;DHT22;3385;48.928;10.330;2022-10-16T08:31:05;17.50;99.90
6696;DHT22;3385;48.928;10.330;2022-10-16T08:33:30;17.70;99.90
6696;DHT22;3385;48.928;10.330;2022-10-16T08:35:56;17.80;99.90
6696;DHT22;3385;48.928;10.330;2022-10-16T08:38:22;17.80;99.90
6696;DHT22;3385;48.928;10.330;2022-10-16T08:40:47;17.80;99.90
6696;DHT22;3385;48.928;10.330;2022-10-16T08:48:46;17.80;99.90
6696;DHT22;3385;48.928;10.330;2022-10-16T08:51:24;17.90;99.90
6696;DHT22;3385;48.928;10.330;2022-10-16T08:54:32;17.90;99.90
6696;DHT22;3385;48.928;10.330;2022-10-16T08:56:49;17.90;99.90
6696;DHT22;3385;48.928;10.330;2022-10-16T08:59:16;17.90;99.90
6696;DHT22;3385;48.928;10.330;2022-10-16T09:01:47;17.90;99.90
6696;DHT22;3385;48.928;10.330;2022-10-16T09:06:47;18.00;99.90
6696;DHT22;3385;48.928;10.330;2022-10-16T09:20:34;18.10;99.90
6696;DHT22;3385;48.928;10.330;2022-10-16T09:25:31;18.30;99.90
6696;DHT22;3385;48.928;10.330;2022-10-16T09:27:57;18.40;99.90
6696;DHT22;3385;48.928;10.330;2022-10-16T09:30:28;18.50;99.90
6696;DHT22;3385;48.928;10.330;2022-10-16T09:32:57;18.70;99.90
6696;DHT22;3385;48.928;10.330;2022-10-16T09:35:37;18.80;99.90
6696;DHT22;3385;48.928;10.330;2022-10-16T09:38:04;18.80;99.90
6696;DHT22;3385;48.928;10.330;2022-10-16T09:40:38;18.80;99.90
6696;DHT22;3385;48.928;10.330;2022-10-16T09:43:38;18.90;99.90
6696;DHT22;3385;48.928;10.330;2022-10-16T09:46:20;18.90;99.90
6696;DHT22;3385;48.928;10.330;2022-10-16T09:48:49;19.00;99.90
6696;DHT22;3385;48.928;10.330;2022-10-16T09:53:58;19.30;99.90
6696;DHT22;3385;48.928;10.330;2022-10-16T09:56:30;19.50;99.90
6696;DHT22;3385;48.928;10.330;2022-10-16T09:59:00;19.50;99.90
6696;DHT22;3385;48.928;10.330;2022-10-16T10:01:36;19.40;99.90
6696;DHT22;3385;48.928;10.330;2022-10-16T10:04:03;19.30;99.90
6696;DHT22;3385;48.928;10.330;2022-10-16T10:06:48;19.40;99.90
6696;DHT22;3385;48.928;10.330;2022-10-16T10:11:55;19.70;99.90
6696;DHT22;3385;48.928;10.330;2022-10-16T10:14:35;19.80;99.90
6696;DHT22;3385;48.928;10.330;2022-10-16T10:17:17;19.90;99.90
6696;DHT22;3385;48.928;10.330;2022-10-16T10:19:57;20.00;99.90
6696;DHT22;3385;48.928;10.330;2022-10-16T10:25:18;20.30;99.90
6696;DHT22;3385;48.928;10.330;2022-10-16T10:57:46;20.50;99.90
6696;DHT22;3385;48.928;10.330;2022-10-16T11:06:18;21.10;99.90
6696;DHT22;3385;48.928;10.330;2022-10-16T11:08:52;21.40;99.90
6696;DHT22;3385;48.928;10.330;2022-10-16T11:11:24;21.80;99.90
6696;DHT22;3385;48.928;10.330;2022-10-16T11:17:07;22.10;99.90
6696;DHT22;3385;48.928;10.330;2022-10-16T11:25:11;22.50;99.90
6696;DHT22;3385;48.928;10.330;2022-10-16T11:27:48;22.40;99.90
6696;DHT22;3385;48.928;10.330;2022-10-16T11:30:22;22.50;99.90
6696;DHT22;3385;48.928;10.330;2022-10-16T11:36:13;22.20;99.90
6696;DHT22;3385;48.928;10.330;2022-10-16T11:38:52;23.00;99.90
6696;DHT22;3385;48.928;10.330;2022-10-16T11:41:59;24.60;99.90
6696;DHT22;3385;48.928;10.330;2022-10-16T11:44:33;26.00;99.90
6696;DHT22;3385;48.928;10.330;2022-10-16T11:47:11;27.70;99.90
6696;DHT22;3385;48.928;10.330;2022-10-16T11:49:39;28.20;99.90
6696;DHT22;3385;48.928;10.330;2022-10-16T11:52:15;28.80;99.90
6696;DHT22;3385;48.928;10.330;2022-10-16T11:57:46;28.70;99.90
6696;DHT22;3385;48.928;10.330;2022-10-16T12:00:39;28.60;99.90
6696;DHT22;3385;48.928;10.330;2022-10-16T12:03:20;28.70;99.90
6696;DHT22;3385;48.928;10.330;2022-10-16T12:08:34;29.80;99.90
6696;DHT22;3385;48.928;10.330;2022-10-16T12:11:08;30.50;99.90
6696;DHT22;3385;48.928;10.330;2022-10-16T12:13:38;30.40;99.90
6696;DHT22;3385;48.928;10.330;2022-10-16T12:16:20;30.30;99.90
6696;DHT22;3385;48.928;10.330;2022-10-16T12:18:47;30.90;99.90
6696;DHT22;3385;48.928;10.330;2022-10-16T12:21:16;31.20;99.90
6696;DHT22;3385;48.928;10.330;2022-10-16T12:26:36;31.70;99.90
6696;DHT22;3385;48.928;10.330;2022-10-16T12:29:23;31.80;99.90
6696;DHT22;3385;48.928;10.330;2022-10-16T12:31:53;32.00;99.90
6696;DHT22;3385;48.928;10.330;2022-10-16T12:34:32;32.70;99.90
6696;DHT22;3385;48.928;10.330;2022-10-16T12:37:19;32.40;99.90
6696;DHT22;3385;48.928;10.330;2022-10-16T12:39:48;32.80;99.90
6696;DHT22;3385;48.928;10.330;2022-10-16T12:42:32;33.10;96.90
6696;DHT22;3385;48.928;10.330;2022-10-16T12:44:59;33.70;94.30
6696;DHT22;3385;48.928;10.330;2022-10-16T12:49:57;33.00;92.50
6696;DHT22;3385;48.928;10.330;2022-10-16T12:52:38;33.80;88.20
6696;DHT22;3385;48.928;10.330;2022-10-16T12:55:09;33.70;85.50
6696;DHT22;3385;48.928;10.330;2022-10-16T13:03:27;33.00;77.00
6696;DHT22;3385;48.928;10.330;2022-10-16T13:09:08;32.20;80.60
6696;DHT22;3385;48.928;10.330;2022-10-16T13:12:44;32.20;76.40
6696;DHT22;3385;48.928;10.330;2022-10-16T13:17:32;32.40;78.30
6696;DHT22;3385;48.928;10.330;2022-10-16T13:25:35;30.50;80.40
6696;DHT22;3385;48.928;10.330;2022-10-16T13:28:07;31.20;85.40
6696;DHT22;3385;48.928;10.330;2022-10-16T13:31:05;30.50;83.80
6696;DHT22;3385;48.928;10.330;2022-10-16T13:33:41;29.60;90.30
6696;DHT22;3385;48.928;10.330;2022-10-16T13:36:30;29.10;90.50
6696;DHT22;3385;48.928;10.330;2022-10-16T13:39:14;29.30;86.30
6696;DHT22;3385;48.928;10.330;2022-10-16T13:41:40;28.30;91.20
6696;DHT22;3385;48.928;10.330;2022-10-16T13:44:17;27.60;94.80
6696;DHT22;3385;48.928;10.330;2022-10-16T13:46:44;26.60;98.20
6696;DHT22;3385;48.928;10.330;2022-10-16T13:49:15;25.70;99.70
6696;DHT22;3385;48.928;10.330;2022-10-16T13:51:41;24.90;99.90
6696;DHT22;3385;48.928;10.330;2022-10-16T13:54:10;24.40;99.90
6696;DHT22;3385;48.928;10.330;2022-10-16T13:56:39;24.00;99.90
6696;DHT22;3385;48.928;10.330;2022-10-16T14:01:53;23.40;99.90
6696;DHT22;3385;48.928;10.330;2022-10-16T14:04:19;23.10;99.90
6696;DHT22;3385;48.928;10.330;2022-10-16T14:06:48;23.00;99.90
6696;DHT22;3385;48.928;10.330;2022-10-16T14:09:28;22.90;99.90
6696;DHT22;3385;48.928;10.330;2022-10-16T14:12:01;22.80;99.90
6696;DHT22;3385;48.928;10.330;2022-10-16T14:14:51;22.60;99.90
6696;DHT22;3385;48.928;10.330;2022-10-16T14:17:32;22.40;99.90
6696;DHT22;3385;48.928;10.330;2022-10-16T14:20:01;22.40;99.90
6696;DHT22;3385;48.928;10.330;2022-10-16T14:22:43;22.60;99.90
6696;DHT22;3385;48.928;10.330;2022-10-16T14:30:58;22.40;99.90
6696;DHT22;3385;48.928;10.330;2022-10-16T14:36:03;22.30;99.90
6696;DHT22;3385;48.928;10.330;2022-10-16T14:38:31;22.70;99.90
6696;DHT22;3385;48.928;10.330;2022-10-16T14:40:59;22.80;99.90
6696;DHT22;3385;48.928;10.330;2022-10-16T14:43:33;23.00;99.90
6696;DHT22;3385;48.928;10.330;2022-10-16T14:45:59;22.90;99.90
6696;DHT22;3385;48.928;10.330;2022-10-16T14:48:26;22.80;99.90
6696;DHT22;3385;48.928;10.330;2022-10-16T14:50:52;22.70;99.90
6696;DHT22;3385;48.928;10.330;2022-10-16T14:53:18;22.40;99.90
6696;DHT22;3385;48.928;10.330;2022-10-16T14:55:44;22.20;99.90
6696;DHT22;3385;48.928;10.330;2022-10-16T14:58:21;22.20;99.90
6696;DHT22;3385;48.928;10.330;2022-10-16T15:00:48;22.00;99.90
6696;DHT22;3385;48.928;10.330;2022-10-16T15:03:15;22.00;99.90
6696;DHT22;3385;48.928;10.330;2022-10-16T15:05:40;21.90;99.90
6696;DHT22;3385;48.928;10.330;2022-10-16T15:08:06;21.90;99.90
6696;DHT22;3385;48.928;10.330;2022-10-16T15:10:38;21.80;99.90
6696;DHT22;3385;48.928;10.330;2022-10-16T15:13:04;21.60;99.90
6696;DHT22;3385;48.928;10.330;2022-10-16T15:15:35;21.60;99.90
6696;DHT22;3385;48.928;10.330;2022-10-16T15:18:02;21.40;99.90
6696;DHT22;3385;48.928;10.330;2022-10-16T15:20:30;21.10;99.90
6696;DHT22;3385;48.928;10.330;2022-10-16T15:23:02;20.90;99.90
6696;DHT22;3385;48.928;10.330;2022-10-16T15:25:32;20.70;99.90
6696;DHT22;3385;48.928;10.330;2022-10-16T15:27:59;20.50;99.90
6696;DHT22;3385;48.928;10.330;2022-10-16T15:30:26;20.30;99.90
6696;DHT22;3385;48.928;10.330;2022-10-16T15:32:52;20.10;99.90
6696;DHT22;3385;48.928;10.330;2022-10-16T15:35:18;19.90;99.90
6696;DHT22;3385;48.928;10.330;2022-10-16T15:37:44;19.70;99.90
6696;DHT22;3385;48.928;10.330;2022-10-16T15:40:11;19.50;99.90
6696;DHT22;3385;48.928;10.330;2022-10-16T15:42:37;19.30;99.90
6696;DHT22;3385;48.928;10.330;2022-10-16T15:45:02;19.20;99.90
6696;DHT22;3385;48.928;10.330;2022-10-16T15:47:29;19.10;99.90
6696;DHT22;3385;48.928;10.330;2022-10-16T15:49:55;19.00;99.90
6696;DHT22;3385;48.928;10.330;2022-10-16T15:52:20;18.90;99.90
6696;DHT22;3385;48.928;10.330;2022-10-16T15:54:46;18.80;99.90
6696;DHT22;3385;48.928;10.330;2022-10-16T15:57:12;18.80;99.90
6696;DHT22;3385;48.928;10.330;2022-10-16T15:59:37;18.70;99.90
6696;DHT22;3385;48.928;10.330;2022-10-16T16:02:03;18.60;99.90
6696;DHT22;3385;48.928;10.330;2022-10-16T16:04:32;18.60;99.90
6696;DHT22;3385;48.928;10.330;2022-10-16T16:06:58;18.50;99.90
6696;DHT22;3385;48.928;10.330;2022-10-16T16:09:23;18.40;99.90
6696;DHT22;3385;48.928;10.330;2022-10-16T16:11:49;18.30;99.90
6696;DHT22;3385;48.928;10.330;2022-10-16T16:14:16;18.30;99.90
6696;DHT22;3385;48.928;10.330;2022-10-16T16:16:42;18.20;99.90
6696;DHT22;3385;48.928;10.330;2022-10-16T16:19:08;18.10;99.90
6696;DHT22;3385;48.928;10.330;2022-10-16T16:21:35;17.90;99.90
6696;DHT22;3385;48.928;10.330;2022-10-16T16:24:00;17.90;99.90
6696;DHT22;3385;48.928;10.330;2022-10-16T16:26:33;17.80;99.90
6696;DHT22;3385;48.928;10.330;2022-10-16T16:29:03;17.80;99.90
6696;DHT22;3385;48.928;10.330;2022-10-16T16:31:30;17.80;99.90
6696;DHT22;3385;48.928;10.330;2022-10-16T16:33:57;17.80;99.90
6696;DHT22;3385;48.928;10.330;2022-10-16T16:36:23;17.70;99.90
6696;DHT22;3385;48.928;10.330;2022-10-16T16:38:49;17.60;99.90
6696;DHT22;3385;48.928;10.330;2022-10-16T16:41:17;17.60;99.90
6696;DHT22;3385;48.928;10.330;2022-10-16T16:43:44;17.50;99.90
6696;DHT22;3385;48.928;10.330;2022-10-16T16:46:10;17.50;99.90
6696;DHT22;3385;48.928;10.330;2022-10-16T16:48:37;17.50;99.90
6696;DHT22;3385;48.928;10.330;2022-10-16T16:51:05;17.40;99.90
6696;DHT22;3385;48.928;10.330;2022-10-16T16:53:34;17.40;99.90
6696;DHT22;3385;48.928;10.330;2022-10-16T16:56:04;17.80;99.90
6696;DHT22;3385;48.928;10.330;2022-10-16T16:58:31;17.40;99.90
6696;DHT22;3385;48.928;10.330;2022-10-16T17:00:58;17.30;99.90
6696;DHT22;3385;48.928;10.330;2022-10-16T17:03:34;17.20;99.90
6696;DHT22;3385;48.928;10.330;2022-10-16T17:08:27;17.10;99.90
6696;DHT22;3385;48.928;10.330;2022-10-16T17:10:54;17.10;99.90
6696;DHT22;3385;48.928;10.330;2022-10-16T17:13:24;17.10;99.90
6696;DHT22;3385;48.928;10.330;2022-10-16T17:15:51;17.00;99.90
6696;DHT22;3385;48.928;10.330;2022-10-16T17:18:18;17.00;99.90
6696;DHT22;3385;48.928;10.330;2022-10-16T17:20:44;17.00;99.90
6696;DHT22;3385;48.928;10.330;2022-10-16T17:23:11;16.90;99.90
6696;DHT22;3385;48.928;10.330;2022-10-16T17:25:38;16.90;99.90
6696;DHT22;3385;48.928;10.330;2022-10-16T17:28:05;16.90;99.90
6696;DHT22;3385;48.928;10.330;2022-10-16T17:30:31;16.80;99.90
6696;DHT22;3385;48.928;10.330;2022-10-16T17:32:58;16.80;99.90
6696;DHT22;3385;48.928;10.330;2022-10-16T17:35:24;16.70;99.90
6696;DHT22;3385;48.928;10.330;2022-10-16T17:37:51;16.70;99.90
6696;DHT22;3385;48.928;10.330;2022-10-16T17:40:17;16.70;99.90
6696;DHT22;3385;48.928;10.330;2022-10-16T17:42:43;16.70;99.90
6696;DHT22;3385;48.928;10.330;2022-10-16T17:45:09;16.70;99.90
6696;DHT22;3385;48.928;10.330;2022-10-16T17:47:35;16.70;99.90
6696;DHT22;3385;48.928;10.330;2022-10-16T17:50:02;16.60;99.90
6696;DHT22;3385;48.928;10.330;2022-10-16T17:52:27;16.60;99.90
6696;DHT22;3385;48.928;10.330;2022-10-16T17:54:53;16.50;99.90
6696;DHT22;3385;48.928;10.330;2022-10-16T17:57:21;16.50;99.90
6696;DHT22;3385;48.928;10.330;2022-10-16T17:59:47;16.30;99.90
6696;DHT22;3385;48.928;10.330;2022-10-16T18:02:13;16.20;99.90
6696;DHT22;3385;48.928;10.330;2022-10-16T18:04:39;16.10;99.90
6696;DHT22;3385;48.928;10.330;2022-10-16T18:07:05;16.00;99.90
6696;DHT22;3385;48.928;10.330;2022-10-16T18:09:32;15.90;99.90
6696;DHT22;3385;48.928;10.330;2022-10-16T18:11:58;16.00;99.90
6696;DHT22;3385;48.928;10.330;2022-10-16T18:14:29;16.10;99.90
6696;DHT22;3385;48.928;10.330;2022-10-16T18:16:56;16.20;99.90
6696;DHT22;3385;48.928;10.330;2022-10-16T18:19:22;16.30;99.90